Time;durP1;ratioP1;P1;durP2;ratioP2;P2;SDS_P1;SDS_P2;PMS_P1;PMS_P2;Temp;Humidity;BMP_temperature;BMP_pressure;BME280_temperature;BME280_humidity;BME280_pressure;Samples;Min_cycle;Max_cycle;Signal;HPM_P1;HPM_P2
2022/03/22 00:01:38;;;;;;;190.40;79.17;;;;;;;-0.32;52.04;102623.88;1782974;80;25601;-71
2022/03/22 00:04:04;;;;;;;166.75;75.67;;;;;;;-0.39;52.24;102625.12;1783260;80;26012;-71
2022/03/22 00:06:31;;;;;;;174.40;75.45;;;;;;;-0.43;52.41;102631.27;1783228;80;25592;-72
2022/03/22 00:08:58;;;;;;;172.98;75.17;;;;;;;-0.44;52.75;102626.98;1783026;79;28029;-71
2022/03/22 00:11:24;;;;;;;171.93;84.97;;;;;;;-0.46;52.88;102629.48;1783030;80;25645;-71
2022/03/22 00:13:53;;;;;;;179.65;83.37;;;;;;;-0.52;52.95;102623.56;1783213;80;25664;-71
2022/03/22 00:16:20;;;;;;;200.10;91.53;;;;;;;-0.56;53.15;102625.75;1782991;80;25669;-71
2022/03/22 00:18:47;;;;;;;209.43;88.10;;;;;;;-0.61;53.26;102622.80;1783217;80;25540;-72
2022/03/22 00:21:14;;;;;;;217.47;102.78;;;;;;;-0.66;53.32;102621.98;1783183;80;28482;-72
2022/03/22 00:23:41;;;;;;;214.55;103.65;;;;;;;-0.69;53.44;102622.33;1782890;80;25720;-72
2022/03/22 00:26:07;;;;;;;218.97;103.78;;;;;;;-0.72;53.75;102627.17;1783287;80;25408;-72
2022/03/22 00:28:34;;;;;;;222.67;105.90;;;;;;;-0.77;53.94;102616.59;1783273;80;25791;-72
2022/03/22 00:31:02;;;;;;;213.55;103.85;;;;;;;-0.80;54.10;102618.73;1783041;80;25578;-71
2022/03/22 00:33:29;;;;;;;222.43;107.90;;;;;;;-0.81;54.25;102614.45;1783384;80;27461;-71
2022/03/22 00:35:55;;;;;;;222.82;103.25;;;;;;;-0.84;54.61;102615.61;1783151;80;25604;-71
2022/03/22 00:38:22;;;;;;;233.10;108.57;;;;;;;-0.81;54.50;102621.09;1782919;79;25670;-71
2022/03/22 00:40:49;;;;;;;232.72;108.40;;;;;;;-0.81;54.45;102619.77;1783122;80;26168;-71
2022/03/22 00:43:15;;;;;;;252.35;112.00;;;;;;;-0.83;54.65;102614.62;1783255;80;25713;-71
2022/03/22 00:45:42;;;;;;;255.92;121.17;;;;;;;-0.85;54.75;102614.45;1783045;79;27459;-71
2022/03/22 00:48:12;;;;;;;257.52;116.25;;;;;;;-0.86;54.82;102618.14;1783054;80;25589;-71
2022/03/22 00:50:43;;;;;;;254.68;112.30;;;;;;;-0.89;54.95;102614.50;1783264;80;25707;-72
2022/03/22 00:53:12;;;;;;;235.23;99.35;;;;;;;-0.91;54.80;102612.01;1782628;80;26043;-71
2022/03/22 00:55:40;;;;;;;261.48;158.45;;;;;;;-0.92;55.16;102608.20;1777593;80;25599;-71
2022/03/22 00:58:08;;;;;;;278.60;153.60;;;;;;;-0.91;55.10;102609.86;1777390;80;28091;-71
2022/03/22 01:00:36;;;;;;;264.05;158.15;;;;;;;-0.93;55.23;102608.70;1777080;80;25621;-71
2022/03/22 01:03:04;;;;;;;254.05;152.78;;;;;;;-0.93;55.24;102610.55;1777359;80;25433;-72
2022/03/22 01:05:32;;;;;;;188.95;111.42;;;;;;;-0.94;55.12;102609.70;1777575;80;25488;-72
2022/03/22 01:08:06;;;;;;;270.57;158.18;;;;;;;-0.96;55.48;102608.54;1777161;80;25621;-72
2022/03/22 01:10:35;;;;;;;274.58;155.00;;;;;;;-0.99;55.49;102608.06;1777424;80;28032;-71
2022/03/22 01:13:01;;;;;;;211.32;114.65;;;;;;;-1.02;55.55;102606.60;1776785;80;25799;-71
2022/03/22 01:15:34;;;;;;;268.05;152.02;;;;;;;-1.04;55.53;102606.44;1776299;80;25682;-72
2022/03/22 01:18:05;;;;;;;267.10;152.10;;;;;;;-1.14;55.70;102598.20;1777690;80;25512;-72
2022/03/22 01:20:39;;;;;;;281.47;150.25;;;;;;;-1.14;55.70;102598.20;1777729;80;25550;-72
2022/03/22 01:23:07;;;;;;;272.52;124.62;;;;;;;-1.12;55.73;102602.01;1777697;80;27519;-71
2022/03/22 01:25:36;;;;;;;275.40;125.27;;;;;;;-1.13;55.98;102616.28;1777570;80;25366;-71
2022/03/22 01:28:07;;;;;;;274.95;118.02;;;;;;;-1.15;55.97;102607.16;1777821;80;25628;-71
2022/03/22 01:30:35;;;;;;;285.80;122.13;;;;;;;-1.16;56.02;102603.34;1777675;80;25476;-71
2022/03/22 01:33:02;;;;;;;289.77;121.87;;;;;;;-1.17;56.18;102606.51;1777813;80;25617;-71
2022/03/22 01:35:30;;;;;;;307.92;139.40;;;;;;;-1.16;56.45;102604.67;1777785;80;27942;-72
2022/03/22 01:37:57;;;;;;;304.30;131.70;;;;;;;-1.17;56.08;102607.84;1777746;80;25686;-73
2022/03/22 01:40:26;;;;;;;299.58;132.93;;;;;;;-1.20;56.21;102609.50;1777843;80;25606;-73
2022/03/22 01:42:54;;;;;;;313.75;131.82;;;;;;;-1.23;56.29;102606.37;1777900;80;25445;-72
2022/03/22 01:45:21;;;;;;;323.77;142.35;;;;;;;-1.30;56.39;102602.25;1777893;80;25535;-72
2022/03/22 01:47:49;;;;;;;333.87;184.85;;;;;;;-1.31;56.26;102605.92;1777842;80;28172;-72
2022/03/22 01:50:22;;;;;;;321.50;176.78;;;;;;;-1.34;56.64;102598.30;1747450;80;25609;-72
2022/03/22 01:52:49;;;;;;;326.02;179.68;;;;;;;-1.35;56.77;102595.30;1777770;80;25572;-72
2022/03/22 01:55:19;;;;;;;337.60;181.50;;;;;;;-1.36;56.84;102591.02;1784677;80;25532;-72
2022/03/22 01:57:47;;;;;;;322.30;171.13;;;;;;;-1.37;57.08;102593.33;1786915;80;25599;-72
2022/03/22 02:00:18;;;;;;;320.05;165.07;;;;;;;-1.39;57.12;102595.33;1786908;79;28014;-71
2022/03/22 02:05:57;;;;;;;290.43;159.07;;;;;;;-1.45;57.17;102590.70;1786935;80;25510;-72
2022/03/22 02:08:29;;;;;;;290.90;160.48;;;;;;;-1.46;57.49;102587.70;1786887;80;25602;-72
2022/03/22 02:11:02;;;;;;;297.85;158.70;;;;;;;-1.48;57.58;102591.89;1785539;79;25440;-72
2022/03/22 02:13:31;;;;;;;293.90;156.43;;;;;;;-1.48;57.66;102588.39;1785320;80;27184;-72
2022/03/22 02:16:01;;;;;;;304.45;156.43;;;;;;;-1.49;57.66;102589.41;1786836;79;25600;-73
2022/03/22 02:18:28;;;;;;;299.65;164.45;;;;;;;-1.52;57.55;102589.23;1786961;80;25461;-72
2022/03/22 02:20:56;;;;;;;298.45;164.50;;;;;;;-1.54;57.43;102591.23;1760317;80;25617;-73
2022/03/22 02:23:47;;;;;;;297.05;160.60;;;;;;;-1.55;57.66;102596.20;1786913;80;25535;-72
2022/03/22 02:26:14;;;;;;;286.85;158.42;;;;;;;-1.59;57.53;102593.58;1786998;80;28203;-72
2022/03/22 02:28:42;;;;;;;305.80;159.03;;;;;;;-1.60;57.36;102595.41;1786805;79;25709;-72
2022/03/22 02:31:08;;;;;;;291.08;155.82;;;;;;;-1.64;57.53;102593.27;1786897;80;25556;-72
2022/03/22 02:33:35;;;;;;;296.32;160.35;;;;;;;-1.65;57.72;102592.92;1786838;79;26414;-72
2022/03/22 02:36:01;;;;;;;291.27;155.80;;;;;;;-1.68;57.77;102596.77;1786947;79;25587;-72
2022/03/22 02:38:27;;;;;;;288.00;157.90;;;;;;;-1.68;57.65;102587.98;1786890;80;27434;-72
2022/03/22 02:40:54;;;;;;;298.60;154.23;;;;;;;-1.70;57.71;102592.13;1786786;79;25593;-72
2022/03/22 02:43:21;;;;;;;282.85;158.32;;;;;;;-1.68;57.78;102595.95;1786844;79;25561;-72
2022/03/22 02:45:47;;;;;;;284.57;157.80;;;;;;;-1.71;58.36;102595.27;1786801;80;25584;-72
2022/03/22 02:48:15;;;;;;;287.05;156.90;;;;;;;-1.73;58.27;102592.47;1786824;80;25417;-72
2022/03/22 02:50:41;;;;;;;301.18;155.63;;;;;;;-1.73;58.30;102597.77;1786824;80;27473;-72
2022/03/22 02:53:07;;;;;;;277.77;154.78;;;;;;;-1.75;58.47;102594.47;1786771;80;25413;-72
2022/03/22 02:55:34;;;;;;;287.60;152.70;;;;;;;-1.76;58.58;102592.30;1784227;80;25439;-72
2022/03/22 02:58:00;;;;;;;282.00;152.90;;;;;;;-1.77;58.67;102595.11;1783470;80;26125;-72
2022/03/22 03:00:26;;;;;;;279.48;155.45;;;;;;;-1.78;58.60;102591.64;1783521;80;25565;-72
2022/03/22 03:02:53;;;;;;;293.17;155.93;;;;;;;-1.76;58.74;102600.25;1783493;80;27524;-72
2022/03/22 03:05:22;;;;;;;294.32;159.95;;;;;;;-1.77;58.69;102601.75;1783423;80;25702;-72
2022/03/22 03:07:51;;;;;;;223.45;116.67;;;;;;;-1.76;58.42;102603.42;1783668;80;25462;-72
2022/03/22 03:10:18;;;;;;;211.57;112.12;;;;;;;-1.76;59.01;102601.58;1783120;80;26262;-72
2022/03/22 03:12:45;;;;;;;273.00;154.75;;;;;;;-1.76;59.19;102604.74;1783565;80;25357;-72
2022/03/22 03:15:13;;;;;;;279.80;153.32;;;;;;;-1.78;59.05;102607.56;1783471;80;27521;-72
2022/03/22 03:17:39;;;;;;;269.95;151.00;;;;;;;-1.79;59.11;102616.51;1783419;79;25792;-72
2022/03/22 03:20:08;;;;;;;272.60;152.27;;;;;;;-1.81;58.98;102614.53;1783469;80;25723;-72
2022/03/22 03:22:35;;;;;;;283.70;149.97;;;;;;;-1.79;59.21;102617.83;1783474;79;25419;-72
2022/03/22 03:25:03;;;;;;;284.27;148.28;;;;;;;-1.81;59.38;102615.03;1783527;80;25409;-72
2022/03/22 03:27:29;;;;;;;276.82;152.07;;;;;;;-1.83;59.58;102617.04;1783476;80;27492;-72
2022/03/22 03:29:56;;;;;;;282.95;151.07;;;;;;;-1.84;59.57;102618.84;1783363;80;25441;-73
2022/03/22 03:32:22;;;;;;;285.95;151.90;;;;;;;-1.88;59.58;102618.86;1783418;80;25528;-73
2022/03/22 03:34:49;;;;;;;272.20;157.03;;;;;;;-1.90;60.00;102616.37;1783449;80;26056;-73
2022/03/22 03:37:16;;;;;;;276.18;151.53;;;;;;;-1.90;60.08;102621.68;1783513;80;25522;-73
2022/03/22 03:39:44;;;;;;;269.50;151.63;;;;;;;-1.91;59.96;102618.72;1783448;80;27471;-72
2022/03/22 03:42:11;;;;;;;271.55;150.78;;;;;;;-1.91;60.05;102620.52;1783475;80;25685;-72
2022/03/22 03:47:23;;;;;;;278.50;154.42;;;;;;;-1.93;59.73;102624.66;1783479;80;26182;-72
2022/03/22 03:49:58;;;;;;;291.02;156.05;;;;;;;-1.95;59.95;102616.56;1783499;79;25576;-73
2022/03/22 03:52:28;;;;;;;260.05;152.38;;;;;;;-1.95;59.84;102621.86;1783491;80;27446;-73
2022/03/22 03:54:57;;;;;;;273.23;147.78;;;;;;;-1.98;59.81;102619.55;1783262;80;26699;-73
2022/03/22 03:57:25;;;;;;;276.98;152.40;;;;;;;-1.99;59.59;102618.72;1783490;79;25599;-72
2022/03/22 03:59:54;;;;;;;260.13;122.87;;;;;;;-2.00;60.08;102621.03;1783700;80;25541;-72
2022/03/22 04:02:21;;;;;;;268.35;118.25;;;;;;;-2.00;60.25;102632.16;1783544;80;25657;-72
2022/03/22 04:04:52;;;;;;;281.90;123.28;;;;;;;-2.05;60.23;102627.84;1783519;80;27463;-72
2022/03/22 04:07:19;;;;;;;288.05;129.10;;;;;;;-2.11;60.26;102626.67;1782884;80;25917;-72
2022/03/22 04:09:46;;;;;;;293.85;129.68;;;;;;;-2.13;60.08;102632.65;1754966;80;25407;-72
2022/03/22 04:12:12;;;;;;;304.55;129.03;;;;;;;-2.16;60.30;102636.48;1783396;80;25780;-72
2022/03/22 04:14:38;;;;;;;282.23;125.47;;;;;;;-2.19;60.35;102637.31;1783485;80;25591;-72
2022/03/22 04:17:08;;;;;;;274.55;116.28;;;;;;;-2.23;60.23;102646.09;1783469;80;27536;-72
2022/03/22 04:19:36;;;;;;;289.50;161.43;;;;;;;-2.25;60.51;102648.06;1783591;80;25359;-72
2022/03/22 04:22:04;;;;;;;286.77;136.18;;;;;;;-2.28;60.52;102643.11;1754905;80;25480;-72
2022/03/22 04:24:31;;;;;;;297.05;125.72;;;;;;;-2.25;60.63;102644.08;1754941;80;25558;-72
2022/03/22 04:32:41;;;;;;;288.57;128.75;;;;;;;-2.27;60.76;102650.87;1783451;80;25473;-72
2022/03/22 04:34:57;;;;;;;269.57;119.60;;;;;;;-2.29;60.74;102650.22;1783498;80;25442;-72
2022/03/22 04:37:24;;;;;;;279.27;125.10;;;;;;;-2.27;60.95;102646.90;1783431;80;25488;-73
2022/03/22 04:39:50;;;;;;;282.23;121.55;;;;;;;-2.25;60.97;102649.39;1783486;80;25439;-73
2022/03/22 04:42:16;;;;;;;268.20;111.35;;;;;;;-2.26;61.12;102643.27;1783471;79;27540;-72
2022/03/22 04:44:44;;;;;;;266.98;112.22;;;;;;;-2.25;61.13;102650.72;1783336;80;25672;-72
2022/03/22 04:47:11;;;;;;;271.32;119.72;;;;;;;-2.25;61.27;102650.72;1783487;79;25394;-71
2022/03/22 04:49:37;;;;;;;279.55;123.20;;;;;;;-2.24;61.26;102652.89;1783404;80;26080;-72
2022/03/22 04:57:35;;;;;;;290.30;129.47;;;;;;;-2.20;60.89;102652.38;1783395;80;25439;-72
2022/03/22 05:00:03;;;;;;;283.45;127.53;;;;;;;-2.18;60.84;102657.52;1783448;80;25376;-72
2022/03/22 05:02:30;;;;;;;280.80;119.42;;;;;;;-2.17;60.64;102648.58;1783425;80;25714;-72
2022/03/22 05:04:56;;;;;;;279.27;128.90;;;;;;;-2.14;60.50;102654.88;1783527;79;25782;-73
2022/03/22 05:07:23;;;;;;;280.57;127.53;;;;;;;-2.12;60.46;102655.02;1783618;80;27449;-73
2022/03/22 05:09:49;;;;;;;284.95;133.25;;;;;;;-2.09;60.75;102655.20;1783531;80;25389;-73
2022/03/22 05:12:16;;;;;;;292.95;135.90;;;;;;;-2.04;61.16;102662.64;1783617;79;25521;-73
2022/03/22 05:14:43;;;;;;;292.57;125.95;;;;;;;-2.02;60.91;102658.84;1783529;80;26017;-73
2022/03/22 05:17:11;;;;;;;267.73;120.97;;;;;;;-2.01;61.22;102652.55;1783628;80;25444;-73
2022/03/22 05:19:39;;;;;;;268.95;126.82;;;;;;;-1.99;61.50;102657.19;1783609;80;27462;-73
2022/03/22 05:22:07;;;;;;;269.77;122.92;;;;;;;-1.93;61.00;102653.03;1782948;80;25440;-73
2022/03/22 05:24:34;;;;;;;269.62;123.53;;;;;;;-1.88;61.33;102656.00;1783608;79;25498;-73
2022/03/22 05:27:02;;;;;;;265.05;120.62;;;;;;;-1.82;61.49;102655.82;1783570;80;26234;-73
2022/03/22 05:29:29;;;;;;;264.63;119.17;;;;;;;-1.78;61.55;102651.34;1783603;80;25564;-73
2022/03/22 05:31:56;;;;;;;262.72;121.02;;;;;;;-1.67;61.51;102658.11;1783582;80;28028;-73
2022/03/22 05:34:22;;;;;;;266.23;124.27;;;;;;;-1.58;61.51;102657.11;1783481;80;25446;-73
2022/03/22 05:36:49;;;;;;;315.65;150.47;;;;;;;-1.50;61.75;102656.25;1783576;80;25585;-73
2022/03/22 05:39:15;;;;;;;316.80;143.15;;;;;;;-1.38;61.92;102653.58;1783548;80;26087;-73
2022/03/22 05:41:42;;;;;;;285.52;130.45;;;;;;;-1.23;62.21;102648.35;1783580;80;25609;-73
2022/03/22 05:44:13;;;;;;;266.30;120.08;;;;;;;-1.06;62.31;102653.61;1783601;80;28026;-73
2022/03/22 05:46:37;;;;;;;287.20;127.20;;;;;;;-0.91;62.41;102651.05;1783016;80;25858;-72
2022/03/22 05:49:03;;;;;;;270.65;125.15;;;;;;;-0.72;62.53;102652.42;1783641;80;25598;-73
2022/03/22 05:51:30;;;;;;;266.10;113.68;;;;;;;-0.55;62.45;102651.82;1783569;80;25585;-73
2022/03/22 05:53:56;;;;;;;268.40;123.80;;;;;;;-0.33;62.43;102648.84;1783621;79;25544;-72
2022/03/22 05:56:22;;;;;;;269.40;124.90;;;;;;;-0.12;62.12;102660.98;1779705;80;28032;-72
2022/03/22 05:58:49;;;;;;;261.55;117.53;;;;;;;0.13;61.94;102658.08;1777766;80;25579;-73
2022/03/22 06:01:17;;;;;;;264.68;125.20;;;;;;;0.35;61.82;102657.70;1747582;80;25463;-73
2022/03/22 06:03:45;;;;;;;272.67;123.62;;;;;;;0.59;61.70;102657.92;1778033;80;25489;-73
2022/03/22 06:06:11;;;;;;;293.50;128.72;;;;;;;0.84;61.54;102654.47;1778174;80;25712;-73
2022/03/22 06:08:40;;;;;;;269.30;122.90;;;;;;;1.12;61.32;102652.43;1778107;80;27465;-74
2022/03/22 06:11:06;;;;;;;266.23;117.70;;;;;;;1.39;60.84;102654.06;1778354;80;25608;-73
2022/03/22 06:13:33;;;;;;;266.60;121.20;;;;;;;1.68;61.17;102651.77;1778128;80;25539;-73
2022/03/22 06:16:00;;;;;;;266.57;119.40;;;;;;;2.02;60.79;102655.55;1777786;80;25462;-73
2022/03/22 06:18:27;;;;;;;269.82;121.13;;;;;;;2.34;60.70;102651.47;1777796;80;25249;-74
2022/03/22 06:20:54;;;;;;;288.98;131.27;;;;;;;2.64;59.87;102659.25;1777724;80;28034;-74
2022/03/22 06:23:20;;;;;;;278.65;123.50;;;;;;;2.98;59.75;102654.36;1777630;80;25730;-74
2022/03/22 06:25:46;;;;;;;277.93;134.87;;;;;;;3.34;59.67;102657.25;1777749;80;25535;-74
2022/03/22 06:28:14;;;;;;;280.52;133.67;;;;;;;3.71;59.31;102649.69;1777689;80;25565;-73
2022/03/22 06:30:42;;;;;;;277.10;130.52;;;;;;;4.09;58.97;102661.11;1777721;80;25402;-73
2022/03/22 06:33:16;;;;;;;289.02;174.30;;;;;;;4.47;57.95;102660.42;1777717;80;27442;-74
2022/03/22 06:35:45;;;;;;;262.20;170.32;;;;;;;4.80;56.83;102659.52;1777766;80;25812;-74
2022/03/22 06:38:12;;;;;;;306.60;190.55;;;;;;;5.19;56.80;102663.56;1777834;80;25526;-73
2022/03/22 06:40:39;;;;;;;299.05;183.52;;;;;;;5.65;56.54;102654.92;1777855;80;25984;-74
2022/03/22 06:43:10;;;;;;;295.48;184.07;;;;;;;6.12;55.66;102659.42;1777758;80;25464;-74
2022/03/22 06:45:38;;;;;;;297.93;179.65;;;;;;;6.54;55.04;102656.95;1747188;80;29390;-74
2022/03/22 06:48:07;;;;;;;247.70;123.40;;;;;;;7.00;54.41;102658.25;1777621;80;25611;-74
2022/03/22 06:50:35;;;;;;;235.15;150.12;;;;;;;7.43;53.59;102654.55;1777694;80;25481;-73
2022/03/22 06:53:04;;;;;;;203.70;131.43;;;;;;;7.89;53.08;102650.02;1777946;80;25562;-73
2022/03/22 06:55:32;;;;;;;166.77;82.17;;;;;;;8.39;52.56;102657.62;1777880;80;25679;-73
2022/03/22 06:58:00;;;;;;;208.38;107.15;;;;;;;8.90;51.84;102659.25;1777811;80;27505;-73
2022/03/22 07:00:31;;;;;;;228.35;118.08;;;;;;;9.32;50.61;102650.33;1777685;80;25714;-73
2022/03/22 07:03:00;;;;;;;163.22;76.50;;;;;;;9.73;49.96;102659.12;1777784;80;25410;-73
2022/03/22 07:05:28;;;;;;;175.20;84.47;;;;;;;10.08;48.70;102662.12;1777910;80;25591;-73
2022/03/22 07:07:56;;;;;;;144.17;77.85;;;;;;;10.44;48.50;102664.55;1777820;80;25472;-73
2022/03/22 07:10:23;;;;;;;151.02;80.65;;;;;;;10.88;47.93;102663.22;1777720;80;27461;-73
2022/03/22 07:12:57;;;;;;;147.28;77.27;;;;;;;11.37;47.17;102669.12;1777646;80;25454;-74
2022/03/22 07:15:31;;;;;;;135.45;72.60;;;;;;;11.86;46.49;102660.87;1777727;80;25460;-73
2022/03/22 07:18:00;;;;;;;113.25;59.50;;;;;;;12.31;45.95;102662.31;1777753;80;25494;-74
2022/03/22 07:20:28;;;;;;;124.90;62.17;;;;;;;12.78;44.73;102660.61;1778013;80;25590;-74
2022/03/22 07:22:55;;;;;;;134.50;78.67;;;;;;;13.23;44.15;102665.10;1777499;80;28162;-74
2022/03/22 07:25:22;;;;;;;107.78;58.23;;;;;;;13.66;43.30;102670.34;1777605;80;25566;-73
2022/03/22 07:27:49;;;;;;;116.33;58.75;;;;;;;14.09;42.30;102667.57;1777718;80;25449;-73
2022/03/22 07:30:16;;;;;;;91.80;49.65;;;;;;;14.30;41.11;102662.92;1777644;80;25485;-74
2022/03/22 07:32:45;;;;;;;80.50;44.42;;;;;;;14.68;40.88;102666.63;1777652;80;25593;-74
2022/03/22 07:35:14;;;;;;;81.35;46.20;;;;;;;15.01;39.54;102662.92;1764874;80;27494;-73
2022/03/22 07:37:42;;;;;;;93.35;44.45;;;;;;;15.20;38.04;102667.97;1767662;81;25665;-71
2022/03/22 07:40:11;;;;;;;79.27;42.38;;;;;;;15.37;38.19;102660.77;1768050;81;25656;-73
2022/03/22 07:42:39;;;;;;;73.30;39.17;;;;;;;15.71;37.59;102659.16;1767953;81;25665;-73
2022/03/22 07:45:09;;;;;;;75.97;40.40;;;;;;;16.05;36.61;102657.20;1767734;81;25728;-72
2022/03/22 07:47:37;;;;;;;73.50;38.42;;;;;;;16.14;35.81;102662.88;1767665;81;27940;-72
2022/03/22 07:53:05;;;;;;;66.75;35.33;;;;;;;16.32;35.21;102657.77;1766243;81;25743;-73
2022/03/22 07:55:35;;;;;;;64.95;35.38;;;;;;;16.81;34.29;102662.08;1765843;81;25643;-73
2022/03/22 07:58:05;;;;;;;61.25;34.45;;;;;;;17.33;34.00;102664.91;1769784;81;25696;-71
2022/03/22 08:00:30;;;;;;;63.87;35.80;;;;;;;17.90;33.10;102664.27;1768731;81;28214;-75
2022/03/22 08:03:03;;;;;;;65.80;35.70;;;;;;;18.55;32.79;102667.95;1769379;81;25820;-73
2022/03/22 08:05:32;;;;;;;57.67;34.40;;;;;;;19.01;32.07;102661.50;1769699;81;26405;-73
2022/03/22 08:07:59;;;;;;;54.67;31.68;;;;;;;19.24;30.98;102662.93;1770410;81;32521;-74
2022/03/22 08:10:26;;;;;;;59.67;31.93;;;;;;;19.32;30.34;102659.98;1770396;81;25745;-73
2022/03/22 08:12:54;;;;;;;54.50;32.55;;;;;;;19.39;30.23;102651.59;1770028;81;27528;-74
2022/03/22 08:15:21;;;;;;;59.03;32.20;;;;;;;19.80;29.89;102652.48;1770158;81;25900;-74
2022/03/22 08:17:47;;;;;;;55.10;33.75;;;;;;;20.29;29.59;102651.17;1770307;81;25795;-74
2022/03/22 08:20:14;;;;;;;53.63;30.43;;;;;;;20.64;29.16;102654.06;1770334;81;25613;-76
2022/03/22 08:22:54;;;;;;;53.52;29.50;;;;;;;20.82;28.76;102644.72;1770231;81;26374;-74
2022/03/22 08:25:34;;;;;;;47.53;25.80;;;;;;;20.65;28.03;102648.79;1769769;81;28030;-73
2022/03/22 08:28:07;;;;;;;42.25;24.75;;;;;;;20.57;28.19;102647.63;1769983;81;26371;-74
2022/03/22 08:30:36;;;;;;;39.53;23.02;;;;;;;20.56;27.86;102646.58;1770309;81;25650;-75
2022/03/22 08:33:12;;;;;;;35.90;21.65;;;;;;;20.37;27.56;102648.23;1770424;81;25481;-75
2022/03/22 08:35:48;;;;;;;34.83;21.73;;;;;;;20.25;27.53;102640.02;1742641;81;25729;-75
2022/03/22 08:38:24;;;;;;;36.13;21.65;;;;;;;20.06;27.22;102646.34;1738101;82;27484;-74
2022/03/22 08:40:46;;;;;;;38.25;22.93;;;;;;;19.81;27.22;102637.65;1736445;82;25710;-74
2022/03/22 08:43:12;;;;;;;33.58;21.35;;;;;;;19.75;27.36;102634.78;1738228;82;25692;-74
2022/03/22 08:45:39;;;;;;;34.75;21.70;;;;;;;19.88;27.62;102638.57;1738030;82;26463;-74
2022/03/22 08:48:12;;;;;;;35.78;22.35;;;;;;;20.05;27.76;102629.03;1738531;81;26260;-74
2022/03/22 08:50:38;;;;;;;38.67;21.40;;;;;;;20.26;27.10;102637.53;1734480;81;27410;-75
2022/03/22 08:53:06;;;;;;;36.05;20.10;;;;;;;20.27;26.41;102631.45;1757122;81;25759;-74
2022/03/22 08:55:33;;;;;;;36.10;20.30;;;;;;;20.32;26.20;102629.94;1755381;80;25839;-74
2022/03/22 08:58:05;;;;;;;31.50;18.30;;;;;;;20.31;25.99;102633.26;1766332;80;25771;-74
2022/03/22 09:00:28;;;;;;;29.50;18.73;;;;;;;20.58;25.94;102625.86;1766306;80;30981;-73
2022/03/22 09:02:54;;;;;;;31.62;20.08;;;;;;;20.84;26.02;102624.56;1766965;80;27507;-74
2022/03/22 09:08:06;;;;;;;32.98;19.00;;;;;;;20.74;25.46;102619.92;1771077;80;25674;-72
2022/03/22 09:10:34;;;;;;;30.35;20.05;;;;;;;21.08;25.48;102617.77;1758140;80;25845;-71
2022/03/22 09:13:01;;;;;;;31.12;19.65;;;;;;;21.15;24.80;102618.09;1754314;81;25670;-72
2022/03/22 09:15:29;;;;;;;30.12;18.62;;;;;;;21.18;24.69;102618.81;1728515;81;28405;-73
2022/03/22 09:17:57;;;;;;;33.15;19.82;;;;;;;21.19;24.60;102616.29;1754250;81;25730;-73
2022/03/22 09:20:26;;;;;;;28.50;18.75;;;;;;;21.33;24.68;102613.93;1754372;81;25759;-72
2022/03/22 09:22:53;;;;;;;33.67;19.60;;;;;;;21.25;24.48;102612.25;1754234;81;25793;-72
2022/03/22 09:25:23;;;;;;;28.98;19.02;;;;;;;21.36;23.97;102610.53;1754463;81;25642;-73
2022/03/22 09:27:50;;;;;;;34.35;20.43;;;;;;;21.38;23.90;102606.88;1754361;81;27277;-73
2022/03/22 09:30:17;;;;;;;28.73;20.17;;;;;;;21.54;24.50;102598.92;1754006;81;25699;-75
2022/03/22 09:32:46;;;;;;;35.03;21.85;;;;;;;21.89;23.69;102605.70;1754358;81;25841;-73
2022/03/22 09:35:19;;;;;;;28.70;19.48;;;;;;;21.98;23.24;102598.20;1754373;81;25677;-74
2022/03/22 09:37:45;;;;;;;33.38;20.00;;;;;;;21.85;23.64;102589.61;1754058;81;25667;-73
2022/03/22 09:40:14;;;;;;;37.50;20.77;;;;;;;22.12;23.43;102591.90;1754325;81;27288;-74
2022/03/22 09:42:45;;;;;;;30.32;18.75;;;;;;;22.57;22.77;102594.64;1728758;81;25676;-74
2022/03/22 09:45:18;;;;;;;30.50;18.50;;;;;;;22.78;22.05;102587.73;1754172;81;25493;-73
2022/03/22 09:47:46;;;;;;;26.55;18.05;;;;;;;23.29;21.81;102584.86;1754274;81;26312;-73
2022/03/22 09:50:15;;;;;;;23.60;17.45;;;;;;;24.11;22.01;102575.78;1779781;80;25740;-73
2022/03/22 09:52:43;;;;;;;28.75;17.37;;;;;;;24.83;20.06;102581.30;1785549;80;27320;-73
2022/03/22 09:55:13;;;;;;;23.60;16.73;;;;;;;24.78;19.62;102579.58;1785487;79;26428;-74
2022/03/22 09:57:40;;;;;;;25.27;17.10;;;;;;;25.06;19.86;102572.63;1780133;80;25847;-74
2022/03/22 10:00:11;;;;;;;28.07;17.30;;;;;;;25.41;19.96;102569.84;1776295;80;25659;-74
2022/03/22 10:02:38;;;;;;;24.82;16.75;;;;;;;25.99;19.48;102571.48;1776582;80;26194;-74
2022/03/22 10:05:05;;;;;;;26.33;16.90;;;;;;;26.21;19.19;102576.14;1776519;80;28543;-76
2022/03/22 10:07:32;;;;;;;23.65;17.12;;;;;;;26.72;19.31;102568.34;1776648;80;25747;-73
2022/03/22 10:10:05;;;;;;;28.35;17.65;;;;;;;26.92;19.32;102567.16;1776741;80;25645;-74
2022/03/22 10:12:33;;;;;;;26.93;17.30;;;;;;;26.86;18.96;102565.84;1776128;80;25698;-74
2022/03/22 10:15:16;;;;;;;27.50;16.50;;;;;;;26.32;18.48;102563.30;1776199;80;25806;-71
2022/03/22 10:17:43;;;;;;;26.73;16.35;;;;;;;25.88;18.66;102571.77;1776369;80;27487;-73
2022/03/22 10:20:23;;;;;;;26.33;16.30;;;;;;;26.09;19.57;102561.81;1745674;80;25657;-73
2022/03/22 10:23:00;;;;;;;26.65;18.40;;;;;;;27.00;19.06;102561.14;1776526;80;25718;-72
2022/03/22 10:25:31;;;;;;;24.52;15.95;;;;;;;27.86;18.65;102556.29;1776570;80;25709;-73
2022/03/22 10:28:01;;;;;;;24.25;15.90;;;;;;;28.37;17.72;102557.23;1776460;80;25875;-72
2022/03/22 10:30:29;;;;;;;22.93;15.60;;;;;;;28.68;17.58;102549.08;1776602;80;27962;-73
2022/03/22 10:32:57;;;;;;;24.37;16.42;;;;;;;29.41;17.57;102547.85;1776689;80;25650;-73
2022/03/22 10:35:30;;;;;;;25.23;17.42;;;;;;;29.89;16.42;102555.41;1776095;80;25631;-71
2022/03/22 10:38:05;;;;;;;24.35;16.32;;;;;;;29.28;16.11;102550.72;1747060;80;25749;-72
2022/03/22 10:40:40;;;;;;;24.98;17.02;;;;;;;28.63;15.41;102550.02;1771084;80;25701;-73
2022/03/22 10:43:08;;;;;;;24.95;16.70;;;;;;;28.13;16.18;102545.98;1776005;80;27322;-73
2022/03/22 10:45:49;;;;;;;22.15;15.65;;;;;;;27.95;16.18;102534.00;1775831;80;26272;-73
2022/03/22 10:48:23;;;;;;;26.80;15.80;;;;;;;28.22;16.74;102531.79;1776604;80;25776;-74
2022/03/22 10:50:51;;;;;;;25.17;16.15;;;;;;;29.04;17.08;102536.13;1776391;80;25704;-74
2022/03/22 10:53:21;;;;;;;22.48;14.98;;;;;;;29.70;16.31;102535.53;1776507;80;25749;-74
2022/03/22 10:55:48;;;;;;;25.62;15.88;;;;;;;29.95;16.12;102534.30;1776387;80;27408;-73
2022/03/22 10:58:18;;;;;;;21.23;14.40;;;;;;;29.58;15.91;102533.84;1775279;80;25753;-72
2022/03/22 11:00:48;;;;;;;22.07;14.73;;;;;;;28.97;15.87;102536.07;1775193;80;25650;-72
2022/03/22 11:03:17;;;;;;;27.32;14.98;;;;;;;28.12;16.20;102523.50;1776457;80;25744;-72
2022/03/22 11:05:55;;;;;;;19.67;13.55;;;;;;;28.01;16.70;102518.37;1776307;80;25708;-72
2022/03/22 11:08:27;;;;;;;23.10;14.55;;;;;;;28.09;16.65;102518.13;1776471;80;27524;-71
2022/03/22 11:10:54;;;;;;;32.88;29.35;;;;;;;28.09;16.67;102515.34;1776319;80;25688;-72
2022/03/22 11:13:23;;;;;;;21.77;14.75;;;;;;;28.04;16.38;102502.33;1776203;80;25651;-72
2022/03/22 11:15:51;;;;;;;23.55;15.75;;;;;;;28.03;16.97;102502.13;1776333;80;25622;-72
2022/03/22 11:18:20;;;;;;;23.92;15.20;;;;;;;28.06;17.34;102502.18;1776604;80;25730;-71
2022/03/22 11:20:55;;;;;;;;;;;;;;;28.12;16.77;102497.08;1778843;80;28012;-70
2022/03/22 11:23:25;;;;;;;26.70;14.45;;;;;;;28.04;16.76;102490.61;1775828;80;25837;-68
2022/03/22 11:25:52;;;;;;;25.48;15.25;;;;;;;28.16;17.03;102490.17;1776531;80;25754;-69
2022/03/22 11:28:24;;;;;;;23.57;13.65;;;;;;;28.37;16.61;102485.48;1776220;80;25691;-69
2022/03/22 11:30:52;;;;;;;21.02;13.45;;;;;;;28.15;16.39;102488.58;1775856;80;25749;-69